Accueil
METAR-TAF:

METAR-TAF

Aéroports :

Aéroport international de Gibraltar

Gibraltar, Gibraltar

latitude: 36-09N, longitude: 005-21W, altitude: 5 m

Observation

Le bulletin a été fait il y a 31 minutes, à 14:23 UTC
Vent 13 kt de sud-ouest
Température 29°C
Humidité 48%
Pression 1012 hPa
Visibilité 10 km ou plus
pas de nuages en-dessous de 1500 mètres et pas de cumulonimbus.

METAR: LXGB 031423Z 23013KT CAVOK 29/17 Q1012 NOSIG RMK BLU BLU

Heure: 16:54 (14:54 UTC)

Prévision

Le bulletin a été fait il y a 1 heure et 24 minutes, à 13:30 UTC
Prévision valable du 03 à 15 UTC au 03 à 23 UTC
Vent 13 kt de sud-ouest
Visibilité 10 km ou plus
pas de nuages en-dessous de 1500 mètres et pas de cumulonimbus.
Temporairement
du 03 à 15 UTC au 03 à 17 UTC
Vent 15 kt de sud/sud-ouest avec des rafales jusqu'à 25 kt

TAF: LXGB 031330Z 0315/0323 22013KT CAVOK TEMPO 0315/0317 21015G25KT 520002

Observations et prévisions météorologiques de plus de 4000 aéroports (messages METAR et TAF).

Les stations disponibles sont représentées par des disques jaunes et rouges sur la carte.

Passer la souris dessus pour voir le nom de la station.

Cliquer dessus pour voir les observations et prévisions météorologiques.

Pour changer de carte: cliquez sur les boutons verts avec une croix noire pour zoomer, sur le bouton vert avec un tiret pour effectuer un zoom arrière, ou sur les flèches vertes pour les cartes adjacentes.


METAR-TAF: